sensor_id;sensor_type;location;lat;lon;timestamp;P1;durP1;ratioP1;P2;durP2;ratioP2
13805;SDS011;6974;53.606;9.872;2022-07-06T00:02:08;3.50;;;1.67;;
13805;SDS011;6974;53.606;9.872;2022-07-06T00:04:34;6.17;;;2.17;;
13805;SDS011;6974;53.606;9.872;2022-07-06T00:07:01;2.80;;;1.77;;
13805;SDS011;6974;53.606;9.872;2022-07-06T00:09:28;6.37;;;2.10;;
13805;SDS011;6974;53.606;9.872;2022-07-06T00:11:55;3.87;;;1.90;;
13805;SDS011;6974;53.606;9.872;2022-07-06T00:14:23;5.03;;;2.13;;
13805;SDS011;6974;53.606;9.872;2022-07-06T00:16:50;3.43;;;1.73;;
13805;SDS011;6974;53.606;9.872;2022-07-06T00:19:17;4.07;;;1.90;;
13805;SDS011;6974;53.606;9.872;2022-07-06T00:21:44;3.63;;;1.90;;
13805;SDS011;6974;53.606;9.872;2022-07-06T00:24:11;2.83;;;1.80;;
13805;SDS011;6974;53.606;9.872;2022-07-06T00:26:38;3.77;;;1.90;;
13805;SDS011;6974;53.606;9.872;2022-07-06T00:29:04;4.00;;;1.90;;
13805;SDS011;6974;53.606;9.872;2022-07-06T00:31:33;3.57;;;2.10;;
13805;SDS011;6974;53.606;9.872;2022-07-06T00:34:00;2.33;;;1.73;;
13805;SDS011;6974;53.606;9.872;2022-07-06T00:36:27;4.67;;;1.90;;
13805;SDS011;6974;53.606;9.872;2022-07-06T00:38:53;2.50;;;1.80;;
13805;SDS011;6974;53.606;9.872;2022-07-06T00:41:21;4.80;;;1.80;;
13805;SDS011;6974;53.606;9.872;2022-07-06T00:43:51;2.90;;;2.10;;
13805;SDS011;6974;53.606;9.872;2022-07-06T00:46:21;5.20;;;1.77;;
13805;SDS011;6974;53.606;9.872;2022-07-06T00:48:52;4.70;;;2.13;;
13805;SDS011;6974;53.606;9.872;2022-07-06T00:51:19;4.10;;;2.27;;
13805;SDS011;6974;53.606;9.872;2022-07-06T00:53:48;5.27;;;1.97;;
13805;SDS011;6974;53.606;9.872;2022-07-06T00:56:15;4.77;;;2.03;;
13805;SDS011;6974;53.606;9.872;2022-07-06T00:58:42;4.40;;;1.90;;
13805;SDS011;6974;53.606;9.872;2022-07-06T01:01:10;3.00;;;2.00;;
13805;SDS011;6974;53.606;9.872;2022-07-06T01:03:37;4.67;;;1.90;;
13805;SDS011;6974;53.606;9.872;2022-07-06T01:06:05;3.00;;;1.80;;
13805;SDS011;6974;53.606;9.872;2022-07-06T01:08:32;2.03;;;1.73;;
13805;SDS011;6974;53.606;9.872;2022-07-06T01:10:59;4.63;;;1.83;;
13805;SDS011;6974;53.606;9.872;2022-07-06T01:13:27;3.43;;;1.80;;
13805;SDS011;6974;53.606;9.872;2022-07-06T01:15:57;4.13;;;2.10;;
13805;SDS011;6974;53.606;9.872;2022-07-06T01:18:23;4.40;;;2.00;;
13805;SDS011;6974;53.606;9.872;2022-07-06T01:21:03;5.63;;;2.20;;
13805;SDS011;6974;53.606;9.872;2022-07-06T01:23:32;4.10;;;1.90;;
13805;SDS011;6974;53.606;9.872;2022-07-06T01:25:59;4.07;;;2.00;;
13805;SDS011;6974;53.606;9.872;2022-07-06T01:28:26;2.23;;;1.70;;
13805;SDS011;6974;53.606;9.872;2022-07-06T01:30:52;5.50;;;2.30;;
13805;SDS011;6974;53.606;9.872;2022-07-06T01:33:19;4.30;;;1.90;;
13805;SDS011;6974;53.606;9.872;2022-07-06T01:35:46;4.33;;;2.10;;
13805;SDS011;6974;53.606;9.872;2022-07-06T01:38:14;4.63;;;1.87;;
13805;SDS011;6974;53.606;9.872;2022-07-06T01:40:41;4.80;;;2.13;;
13805;SDS011;6974;53.606;9.872;2022-07-06T01:43:08;3.20;;;1.93;;
13805;SDS011;6974;53.606;9.872;2022-07-06T01:45:35;5.00;;;2.17;;
13805;SDS011;6974;53.606;9.872;2022-07-06T01:48:04;5.23;;;2.10;;
13805;SDS011;6974;53.606;9.872;2022-07-06T01:50:32;4.40;;;2.23;;
13805;SDS011;6974;53.606;9.872;2022-07-06T01:52:59;4.00;;;1.90;;
13805;SDS011;6974;53.606;9.872;2022-07-06T01:55:27;5.47;;;1.90;;
13805;SDS011;6974;53.606;9.872;2022-07-06T01:57:54;4.93;;;2.43;;
13805;SDS011;6974;53.606;9.872;2022-07-06T02:00:21;4.17;;;1.97;;
13805;SDS011;6974;53.606;9.872;2022-07-06T02:02:48;4.27;;;1.80;;
13805;SDS011;6974;53.606;9.872;2022-07-06T02:05:15;6.60;;;2.33;;
13805;SDS011;6974;53.606;9.872;2022-07-06T02:07:41;4.03;;;1.90;;
13805;SDS011;6974;53.606;9.872;2022-07-06T02:10:08;6.43;;;2.63;;
13805;SDS011;6974;53.606;9.872;2022-07-06T02:12:36;2.23;;;1.90;;
13805;SDS011;6974;53.606;9.872;2022-07-06T02:15:04;5.10;;;2.13;;
13805;SDS011;6974;53.606;9.872;2022-07-06T02:17:31;6.00;;;2.00;;
13805;SDS011;6974;53.606;9.872;2022-07-06T02:19:58;4.80;;;1.90;;
13805;SDS011;6974;53.606;9.872;2022-07-06T02:22:25;5.00;;;2.20;;
13805;SDS011;6974;53.606;9.872;2022-07-06T02:24:51;3.47;;;1.97;;
13805;SDS011;6974;53.606;9.872;2022-07-06T02:27:18;2.37;;;1.80;;
13805;SDS011;6974;53.606;9.872;2022-07-06T02:29:46;4.33;;;1.90;;
13805;SDS011;6974;53.606;9.872;2022-07-06T02:32:13;5.57;;;2.53;;
13805;SDS011;6974;53.606;9.872;2022-07-06T02:34:40;5.77;;;2.00;;
13805;SDS011;6974;53.606;9.872;2022-07-06T02:37:07;3.47;;;1.93;;
13805;SDS011;6974;53.606;9.872;2022-07-06T02:39:34;2.37;;;1.83;;
13805;SDS011;6974;53.606;9.872;2022-07-06T02:42:00;4.27;;;2.00;;
13805;SDS011;6974;53.606;9.872;2022-07-06T02:44:27;6.23;;;2.00;;
13805;SDS011;6974;53.606;9.872;2022-07-06T02:46:55;5.60;;;1.87;;
13805;SDS011;6974;53.606;9.872;2022-07-06T02:49:22;4.00;;;2.00;;
13805;SDS011;6974;53.606;9.872;2022-07-06T02:51:49;3.53;;;1.90;;
13805;SDS011;6974;53.606;9.872;2022-07-06T02:54:16;4.77;;;1.80;;
13805;SDS011;6974;53.606;9.872;2022-07-06T02:56:42;3.73;;;2.00;;
13805;SDS011;6974;53.606;9.872;2022-07-06T02:59:09;3.63;;;2.10;;
13805;SDS011;6974;53.606;9.872;2022-07-06T03:01:36;4.13;;;1.87;;
13805;SDS011;6974;53.606;9.872;2022-07-06T03:04:04;4.37;;;2.07;;
13805;SDS011;6974;53.606;9.872;2022-07-06T03:06:31;5.43;;;1.87;;
13805;SDS011;6974;53.606;9.872;2022-07-06T03:08:58;4.73;;;2.07;;
13805;SDS011;6974;53.606;9.872;2022-07-06T03:11:25;5.60;;;2.40;;
13805;SDS011;6974;53.606;9.872;2022-07-06T03:13:53;3.93;;;2.10;;
13805;SDS011;6974;53.606;9.872;2022-07-06T03:16:20;4.13;;;2.30;;
13805;SDS011;6974;53.606;9.872;2022-07-06T03:18:47;4.07;;;2.80;;
13805;SDS011;6974;53.606;9.872;2022-07-06T03:21:15;6.27;;;2.27;;
13805;SDS011;6974;53.606;9.872;2022-07-06T03:23:42;5.17;;;2.33;;
13805;SDS011;6974;53.606;9.872;2022-07-06T03:26:08;5.67;;;2.60;;
13805;SDS011;6974;53.606;9.872;2022-07-06T03:28:35;3.90;;;2.90;;
13805;SDS011;6974;53.606;9.872;2022-07-06T03:31:02;4.20;;;2.63;;
13805;SDS011;6974;53.606;9.872;2022-07-06T03:33:29;3.23;;;2.60;;
13805;SDS011;6974;53.606;9.872;2022-07-06T03:35:55;4.73;;;2.27;;
13805;SDS011;6974;53.606;9.872;2022-07-06T03:38:24;5.50;;;2.10;;
13805;SDS011;6974;53.606;9.872;2022-07-06T03:40:50;4.07;;;2.00;;
13805;SDS011;6974;53.606;9.872;2022-07-06T03:43:17;6.00;;;2.50;;
13805;SDS011;6974;53.606;9.872;2022-07-06T03:45:44;5.00;;;2.30;;
13805;SDS011;6974;53.606;9.872;2022-07-06T03:48:11;3.37;;;2.20;;
13805;SDS011;6974;53.606;9.872;2022-07-06T03:50:38;3.90;;;2.17;;
13805;SDS011;6974;53.606;9.872;2022-07-06T03:53:04;3.53;;;2.10;;
13805;SDS011;6974;53.606;9.872;2022-07-06T03:55:33;6.57;;;1.90;;
13805;SDS011;6974;53.606;9.872;2022-07-06T03:57:59;5.10;;;2.30;;
13805;SDS011;6974;53.606;9.872;2022-07-06T04:00:26;4.17;;;2.00;;
13805;SDS011;6974;53.606;9.872;2022-07-06T04:02:53;3.20;;;1.80;;
13805;SDS011;6974;53.606;9.872;2022-07-06T04:05:20;3.93;;;2.00;;
13805;SDS011;6974;53.606;9.872;2022-07-06T04:07:48;5.47;;;2.30;;
13805;SDS011;6974;53.606;9.872;2022-07-06T04:10:15;4.40;;;2.27;;
13805;SDS011;6974;53.606;9.872;2022-07-06T04:12:43;3.27;;;2.00;;
13805;SDS011;6974;53.606;9.872;2022-07-06T04:15:11;5.00;;;2.00;;
13805;SDS011;6974;53.606;9.872;2022-07-06T04:17:38;3.17;;;1.73;;
13805;SDS011;6974;53.606;9.872;2022-07-06T04:20:21;4.10;;;1.80;;
13805;SDS011;6974;53.606;9.872;2022-07-06T04:22:49;7.13;;;2.10;;
13805;SDS011;6974;53.606;9.872;2022-07-06T04:25:16;3.40;;;1.90;;
13805;SDS011;6974;53.606;9.872;2022-07-06T04:27:44;4.50;;;1.90;;
13805;SDS011;6974;53.606;9.872;2022-07-06T04:30:11;4.83;;;1.87;;
13805;SDS011;6974;53.606;9.872;2022-07-06T04:32:39;6.60;;;2.30;;
13805;SDS011;6974;53.606;9.872;2022-07-06T04:35:06;4.23;;;2.10;;
13805;SDS011;6974;53.606;9.872;2022-07-06T04:37:33;5.03;;;2.20;;
13805;SDS011;6974;53.606;9.872;2022-07-06T04:40:00;5.37;;;2.10;;
13805;SDS011;6974;53.606;9.872;2022-07-06T04:42:27;3.13;;;1.73;;
13805;SDS011;6974;53.606;9.872;2022-07-06T04:44:55;5.33;;;1.80;;
13805;SDS011;6974;53.606;9.872;2022-07-06T04:47:22;6.60;;;2.40;;
13805;SDS011;6974;53.606;9.872;2022-07-06T04:49:49;5.60;;;2.57;;
13805;SDS011;6974;53.606;9.872;2022-07-06T04:52:17;8.40;;;2.20;;
13805;SDS011;6974;53.606;9.872;2022-07-06T04:54:44;4.07;;;2.03;;
13805;SDS011;6974;53.606;9.872;2022-07-06T04:57:11;3.40;;;1.90;;
13805;SDS011;6974;53.606;9.872;2022-07-06T04:59:38;7.30;;;2.13;;
13805;SDS011;6974;53.606;9.872;2022-07-06T05:02:06;7.00;;;2.33;;
13805;SDS011;6974;53.606;9.872;2022-07-06T05:04:33;5.13;;;1.90;;
13805;SDS011;6974;53.606;9.872;2022-07-06T05:07:00;4.00;;;1.80;;
13805;SDS011;6974;53.606;9.872;2022-07-06T05:09:27;5.33;;;2.20;;
13805;SDS011;6974;53.606;9.872;2022-07-06T05:11:54;3.60;;;2.00;;
13805;SDS011;6974;53.606;9.872;2022-07-06T05:14:21;2.50;;;1.67;;
13805;SDS011;6974;53.606;9.872;2022-07-06T05:16:48;3.07;;;1.83;;
13805;SDS011;6974;53.606;9.872;2022-07-06T05:19:16;2.90;;;1.83;;
13805;SDS011;6974;53.606;9.872;2022-07-06T05:21:43;4.00;;;1.70;;
13805;SDS011;6974;53.606;9.872;2022-07-06T05:24:10;3.37;;;1.80;;
13805;SDS011;6974;53.606;9.872;2022-07-06T05:26:40;4.63;;;2.00;;
13805;SDS011;6974;53.606;9.872;2022-07-06T05:29:07;6.90;;;1.97;;
13805;SDS011;6974;53.606;9.872;2022-07-06T05:31:34;6.40;;;2.00;;
13805;SDS011;6974;53.606;9.872;2022-07-06T05:34:01;4.27;;;1.97;;
13805;SDS011;6974;53.606;9.872;2022-07-06T05:36:30;5.80;;;2.30;;
13805;SDS011;6974;53.606;9.872;2022-07-06T05:38:57;4.20;;;1.70;;
13805;SDS011;6974;53.606;9.872;2022-07-06T05:41:24;5.37;;;2.40;;
13805;SDS011;6974;53.606;9.872;2022-07-06T05:43:51;7.50;;;2.27;;
13805;SDS011;6974;53.606;9.872;2022-07-06T05:46:18;3.13;;;2.07;;
13805;SDS011;6974;53.606;9.872;2022-07-06T05:48:45;6.90;;;3.03;;
13805;SDS011;6974;53.606;9.872;2022-07-06T05:54:00;4.80;;;2.07;;
13805;SDS011;6974;53.606;9.872;2022-07-06T05:56:27;6.63;;;2.20;;
13805;SDS011;6974;53.606;9.872;2022-07-06T05:58:54;3.63;;;1.70;;
13805;SDS011;6974;53.606;9.872;2022-07-06T06:01:20;6.07;;;1.90;;
13805;SDS011;6974;53.606;9.872;2022-07-06T06:03:47;5.13;;;2.00;;
13805;SDS011;6974;53.606;9.872;2022-07-06T06:06:14;4.90;;;2.10;;
13805;SDS011;6974;53.606;9.872;2022-07-06T06:08:43;2.87;;;1.57;;
13805;SDS011;6974;53.606;9.872;2022-07-06T06:11:09;6.23;;;1.90;;
13805;SDS011;6974;53.606;9.872;2022-07-06T06:13:36;5.00;;;2.27;;
13805;SDS011;6974;53.606;9.872;2022-07-06T06:16:04;3.40;;;1.80;;
13805;SDS011;6974;53.606;9.872;2022-07-06T06:18:32;5.70;;;2.13;;
13805;SDS011;6974;53.606;9.872;2022-07-06T06:20:59;4.60;;;1.93;;
13805;SDS011;6974;53.606;9.872;2022-07-06T06:23:28;4.40;;;1.77;;
13805;SDS011;6974;53.606;9.872;2022-07-06T06:25:57;2.50;;;1.60;;
13805;SDS011;6974;53.606;9.872;2022-07-06T06:28:25;3.17;;;1.80;;
13805;SDS011;6974;53.606;9.872;2022-07-06T06:30:52;3.40;;;1.73;;
13805;SDS011;6974;53.606;9.872;2022-07-06T06:33:19;6.07;;;1.70;;
13805;SDS011;6974;53.606;9.872;2022-07-06T06:35:47;3.73;;;2.00;;
13805;SDS011;6974;53.606;9.872;2022-07-06T06:38:15;4.50;;;1.93;;
13805;SDS011;6974;53.606;9.872;2022-07-06T06:40:43;5.37;;;2.00;;
13805;SDS011;6974;53.606;9.872;2022-07-06T06:43:11;4.27;;;1.83;;
13805;SDS011;6974;53.606;9.872;2022-07-06T06:45:39;4.50;;;1.50;;
13805;SDS011;6974;53.606;9.872;2022-07-06T06:48:06;5.27;;;1.90;;
13805;SDS011;6974;53.606;9.872;2022-07-06T06:50:33;2.80;;;1.90;;
13805;SDS011;6974;53.606;9.872;2022-07-06T06:53:01;4.03;;;1.70;;
13805;SDS011;6974;53.606;9.872;2022-07-06T06:55:28;5.07;;;1.80;;
13805;SDS011;6974;53.606;9.872;2022-07-06T06:57:55;4.47;;;1.77;;
13805;SDS011;6974;53.606;9.872;2022-07-06T07:00:24;4.70;;;2.10;;
13805;SDS011;6974;53.606;9.872;2022-07-06T07:02:51;3.00;;;2.00;;
13805;SDS011;6974;53.606;9.872;2022-07-06T07:05:18;6.50;;;2.10;;
13805;SDS011;6974;53.606;9.872;2022-07-06T07:07:44;3.17;;;1.43;;
13805;SDS011;6974;53.606;9.872;2022-07-06T07:10:11;4.83;;;1.77;;
13805;SDS011;6974;53.606;9.872;2022-07-06T07:12:42;5.73;;;2.00;;
13805;SDS011;6974;53.606;9.872;2022-07-06T07:15:09;4.53;;;1.90;;
13805;SDS011;6974;53.606;9.872;2022-07-06T07:17:38;4.97;;;1.70;;
13805;SDS011;6974;53.606;9.872;2022-07-06T07:20:06;3.27;;;1.70;;
13805;SDS011;6974;53.606;9.872;2022-07-06T07:22:33;2.63;;;1.43;;
13805;SDS011;6974;53.606;9.872;2022-07-06T07:25:01;6.07;;;1.80;;
13805;SDS011;6974;53.606;9.872;2022-07-06T07:27:28;3.60;;;1.60;;
13805;SDS011;6974;53.606;9.872;2022-07-06T07:29:55;3.37;;;1.27;;
13805;SDS011;6974;53.606;9.872;2022-07-06T07:32:21;3.00;;;1.60;;
13805;SDS011;6974;53.606;9.872;2022-07-06T07:34:50;2.30;;;1.50;;
13805;SDS011;6974;53.606;9.872;2022-07-06T07:37:17;3.57;;;1.47;;
13805;SDS011;6974;53.606;9.872;2022-07-06T07:39:44;3.27;;;1.50;;
13805;SDS011;6974;53.606;9.872;2022-07-06T07:42:10;5.67;;;1.60;;
13805;SDS011;6974;53.606;9.872;2022-07-06T07:44:37;3.43;;;1.73;;
13805;SDS011;6974;53.606;9.872;2022-07-06T07:47:06;3.57;;;1.80;;
13805;SDS011;6974;53.606;9.872;2022-07-06T07:49:33;2.67;;;1.30;;
13805;SDS011;6974;53.606;9.872;2022-07-06T07:52:01;2.33;;;1.30;;
13805;SDS011;6974;53.606;9.872;2022-07-06T07:54:28;2.83;;;1.53;;
13805;SDS011;6974;53.606;9.872;2022-07-06T07:56:55;1.73;;;1.40;;
13805;SDS011;6974;53.606;9.872;2022-07-06T07:59:22;4.20;;;1.63;;
13805;SDS011;6974;53.606;9.872;2022-07-06T08:01:48;2.97;;;1.57;;
13805;SDS011;6974;53.606;9.872;2022-07-06T08:04:15;1.83;;;1.27;;
13805;SDS011;6974;53.606;9.872;2022-07-06T08:06:42;2.67;;;1.50;;
13805;SDS011;6974;53.606;9.872;2022-07-06T08:09:11;3.37;;;1.33;;
13805;SDS011;6974;53.606;9.872;2022-07-06T08:11:38;2.40;;;1.47;;
13805;SDS011;6974;53.606;9.872;2022-07-06T08:14:05;3.10;;;1.20;;
13805;SDS011;6974;53.606;9.872;2022-07-06T08:16:32;3.23;;;1.37;;
13805;SDS011;6974;53.606;9.872;2022-07-06T08:18:59;1.60;;;1.30;;
13805;SDS011;6974;53.606;9.872;2022-07-06T08:21:26;2.50;;;1.20;;
13805;SDS011;6974;53.606;9.872;2022-07-06T08:23:53;2.80;;;1.67;;
13805;SDS011;6974;53.606;9.872;2022-07-06T08:26:22;3.33;;;1.27;;
13805;SDS011;6974;53.606;9.872;2022-07-06T08:28:49;3.13;;;1.73;;
13805;SDS011;6974;53.606;9.872;2022-07-06T08:31:16;2.23;;;1.50;;
13805;SDS011;6974;53.606;9.872;2022-07-06T08:33:43;5.63;;;1.90;;
13805;SDS011;6974;53.606;9.872;2022-07-06T08:36:10;3.23;;;1.80;;
13805;SDS011;6974;53.606;9.872;2022-07-06T08:38:37;3.37;;;1.60;;
13805;SDS011;6974;53.606;9.872;2022-07-06T08:41:04;3.70;;;1.90;;
13805;SDS011;6974;53.606;9.872;2022-07-06T08:43:34;3.17;;;1.40;;
13805;SDS011;6974;53.606;9.872;2022-07-06T08:46:02;3.50;;;1.60;;
13805;SDS011;6974;53.606;9.872;2022-07-06T08:48:31;4.77;;;1.67;;
13805;SDS011;6974;53.606;9.872;2022-07-06T08:51:04;3.57;;;1.80;;
13805;SDS011;6974;53.606;9.872;2022-07-06T08:53:31;2.53;;;1.60;;
13805;SDS011;6974;53.606;9.872;2022-07-06T08:55:59;2.83;;;1.57;;
13805;SDS011;6974;53.606;9.872;2022-07-06T08:58:27;2.83;;;2.10;;
13805;SDS011;6974;53.606;9.872;2022-07-06T09:00:56;2.03;;;1.60;;
13805;SDS011;6974;53.606;9.872;2022-07-06T09:03:23;4.27;;;1.90;;
13805;SDS011;6974;53.606;9.872;2022-07-06T09:05:50;5.53;;;1.80;;
13805;SDS011;6974;53.606;9.872;2022-07-06T09:08:18;4.20;;;1.83;;
13805;SDS011;6974;53.606;9.872;2022-07-06T09:10:47;2.47;;;1.57;;
13805;SDS011;6974;53.606;9.872;2022-07-06T09:13:14;2.10;;;1.60;;
13805;SDS011;6974;53.606;9.872;2022-07-06T09:15:41;2.83;;;1.70;;
13805;SDS011;6974;53.606;9.872;2022-07-06T09:18:09;2.43;;;1.40;;
13805;SDS011;6974;53.606;9.872;2022-07-06T09:20:36;1.50;;;1.40;;
13805;SDS011;6974;53.606;9.872;2022-07-06T09:23:03;3.67;;;1.67;;
13805;SDS011;6974;53.606;9.872;2022-07-06T09:25:31;3.87;;;1.47;;
13805;SDS011;6974;53.606;9.872;2022-07-06T09:27:59;2.90;;;1.40;;
13805;SDS011;6974;53.606;9.872;2022-07-06T09:30:28;2.27;;;1.37;;
13805;SDS011;6974;53.606;9.872;2022-07-06T09:32:55;3.80;;;1.53;;
13805;SDS011;6974;53.606;9.872;2022-07-06T09:35:25;3.50;;;1.40;;
13805;SDS011;6974;53.606;9.872;2022-07-06T09:38:00;3.30;;;1.20;;
13805;SDS011;6974;53.606;9.872;2022-07-06T09:40:29;3.13;;;1.20;;
13805;SDS011;6974;53.606;9.872;2022-07-06T09:43:09;1.57;;;1.30;;
13805;SDS011;6974;53.606;9.872;2022-07-06T09:45:38;2.37;;;1.10;;
13805;SDS011;6974;53.606;9.872;2022-07-06T09:48:07;2.17;;;1.07;;
13805;SDS011;6974;53.606;9.872;2022-07-06T09:50:40;2.93;;;1.20;;
13805;SDS011;6974;53.606;9.872;2022-07-06T09:53:09;1.40;;;1.00;;
13805;SDS011;6974;53.606;9.872;2022-07-06T09:55:36;2.80;;;1.30;;
13805;SDS011;6974;53.606;9.872;2022-07-06T09:58:04;4.63;;;1.30;;
13805;SDS011;6974;53.606;9.872;2022-07-06T10:00:31;1.20;;;1.10;;
13805;SDS011;6974;53.606;9.872;2022-07-06T10:02:57;1.50;;;0.90;;
13805;SDS011;6974;53.606;9.872;2022-07-06T10:05:25;1.77;;;1.10;;
13805;SDS011;6974;53.606;9.872;2022-07-06T10:07:57;1.90;;;1.10;;
13805;SDS011;6974;53.606;9.872;2022-07-06T10:10:25;1.23;;;1.00;;
13805;SDS011;6974;53.606;9.872;2022-07-06T10:12:54;1.90;;;0.90;;
13805;SDS011;6974;53.606;9.872;2022-07-06T10:15:22;2.97;;;1.20;;
13805;SDS011;6974;53.606;9.872;2022-07-06T10:17:51;2.77;;;1.03;;
13805;SDS011;6974;53.606;9.872;2022-07-06T10:20:18;1.77;;;1.00;;
13805;SDS011;6974;53.606;9.872;2022-07-06T10:22:45;2.40;;;1.30;;
13805;SDS011;6974;53.606;9.872;2022-07-06T10:25:15;1.93;;;1.30;;
13805;SDS011;6974;53.606;9.872;2022-07-06T10:27:43;4.50;;;1.17;;
13805;SDS011;6974;53.606;9.872;2022-07-06T10:30:12;2.70;;;1.40;;
13805;SDS011;6974;53.606;9.872;2022-07-06T10:32:40;2.83;;;1.10;;
13805;SDS011;6974;53.606;9.872;2022-07-06T10:35:09;3.27;;;1.30;;
13805;SDS011;6974;53.606;9.872;2022-07-06T10:37:36;4.73;;;1.00;;
13805;SDS011;6974;53.606;9.872;2022-07-06T10:40:04;2.70;;;0.87;;
13805;SDS011;6974;53.606;9.872;2022-07-06T10:42:55;2.93;;;1.30;;
13805;SDS011;6974;53.606;9.872;2022-07-06T10:48:20;2.47;;;1.20;;
13805;SDS011;6974;53.606;9.872;2022-07-06T10:50:48;2.90;;;1.37;;
13805;SDS011;6974;53.606;9.872;2022-07-06T10:53:17;1.37;;;0.93;;
13805;SDS011;6974;53.606;9.872;2022-07-06T10:55:50;3.50;;;1.20;;
13805;SDS011;6974;53.606;9.872;2022-07-06T11:01:16;3.37;;;1.30;;
13805;SDS011;6974;53.606;9.872;2022-07-06T11:03:44;2.30;;;1.37;;
13805;SDS011;6974;53.606;9.872;2022-07-06T11:06:13;2.57;;;1.20;;
13805;SDS011;6974;53.606;9.872;2022-07-06T11:08:42;4.30;;;1.63;;
13805;SDS011;6974;53.606;9.872;2022-07-06T11:11:10;2.57;;;1.40;;
13805;SDS011;6974;53.606;9.872;2022-07-06T11:13:41;2.90;;;1.47;;
13805;SDS011;6974;53.606;9.872;2022-07-06T11:16:10;3.87;;;1.63;;
13805;SDS011;6974;53.606;9.872;2022-07-06T11:18:40;2.27;;;1.40;;
13805;SDS011;6974;53.606;9.872;2022-07-06T11:21:17;4.67;;;1.40;;
13805;SDS011;6974;53.606;9.872;2022-07-06T11:23:46;2.60;;;1.30;;
13805;SDS011;6974;53.606;9.872;2022-07-06T11:26:14;5.10;;;1.57;;
13805;SDS011;6974;53.606;9.872;2022-07-06T11:28:41;2.23;;;1.50;;
13805;SDS011;6974;53.606;9.872;2022-07-06T11:31:12;1.97;;;1.23;;
13805;SDS011;6974;53.606;9.872;2022-07-06T11:33:39;4.60;;;1.60;;
13805;SDS011;6974;53.606;9.872;2022-07-06T11:36:12;3.70;;;1.60;;
13805;SDS011;6974;53.606;9.872;2022-07-06T11:38:40;3.43;;;1.37;;
13805;SDS011;6974;53.606;9.872;2022-07-06T11:41:07;2.63;;;1.40;;
13805;SDS011;6974;53.606;9.872;2022-07-06T11:43:34;2.13;;;1.20;;
13805;SDS011;6974;53.606;9.872;2022-07-06T11:46:02;3.33;;;1.40;;
13805;SDS011;6974;53.606;9.872;2022-07-06T11:48:30;5.00;;;1.50;;
13805;SDS011;6974;53.606;9.872;2022-07-06T11:50:58;3.10;;;1.30;;
13805;SDS011;6974;53.606;9.872;2022-07-06T11:53:26;3.43;;;1.20;;
13805;SDS011;6974;53.606;9.872;2022-07-06T11:55:53;1.90;;;1.30;;
13805;SDS011;6974;53.606;9.872;2022-07-06T11:58:21;2.77;;;1.10;;
13805;SDS011;6974;53.606;9.872;2022-07-06T12:01:04;3.17;;;1.37;;
13805;SDS011;6974;53.606;9.872;2022-07-06T12:03:33;3.23;;;1.30;;
13805;SDS011;6974;53.606;9.872;2022-07-06T12:06:00;3.43;;;1.50;;
13805;SDS011;6974;53.606;9.872;2022-07-06T12:08:27;3.03;;;1.27;;
13805;SDS011;6974;53.606;9.872;2022-07-06T12:10:54;1.47;;;1.13;;
13805;SDS011;6974;53.606;9.872;2022-07-06T12:13:22;3.50;;;1.30;;
13805;SDS011;6974;53.606;9.872;2022-07-06T12:15:49;3.03;;;1.30;;
13805;SDS011;6974;53.606;9.872;2022-07-06T12:18:16;2.17;;;1.27;;
13805;SDS011;6974;53.606;9.872;2022-07-06T12:20:44;3.47;;;1.47;;
13805;SDS011;6974;53.606;9.872;2022-07-06T12:23:11;1.97;;;1.13;;
13805;SDS011;6974;53.606;9.872;2022-07-06T12:25:38;3.13;;;1.30;;
13805;SDS011;6974;53.606;9.872;2022-07-06T12:28:05;2.97;;;1.30;;
13805;SDS011;6974;53.606;9.872;2022-07-06T12:30:32;2.27;;;1.23;;
13805;SDS011;6974;53.606;9.872;2022-07-06T12:33:12;2.67;;;1.30;;
13805;SDS011;6974;53.606;9.872;2022-07-06T12:35:40;2.67;;;1.00;;
13805;SDS011;6974;53.606;9.872;2022-07-06T12:38:09;2.63;;;1.33;;
13805;SDS011;6974;53.606;9.872;2022-07-06T12:40:36;3.60;;;1.20;;
13805;SDS011;6974;53.606;9.872;2022-07-06T12:43:04;2.97;;;1.53;;
13805;SDS011;6974;53.606;9.872;2022-07-06T12:45:31;2.07;;;1.10;;
13805;SDS011;6974;53.606;9.872;2022-07-06T12:47:58;1.70;;;1.20;;
13805;SDS011;6974;53.606;9.872;2022-07-06T12:50:32;3.37;;;1.30;;
13805;SDS011;6974;53.606;9.872;2022-07-06T12:53:00;2.37;;;1.23;;
13805;SDS011;6974;53.606;9.872;2022-07-06T12:55:29;2.83;;;1.30;;
13805;SDS011;6974;53.606;9.872;2022-07-06T12:57:56;2.47;;;0.90;;
13805;SDS011;6974;53.606;9.872;2022-07-06T13:00:24;4.00;;;1.23;;
13805;SDS011;6974;53.606;9.872;2022-07-06T13:02:51;3.13;;;1.20;;
13805;SDS011;6974;53.606;9.872;2022-07-06T13:05:24;2.53;;;1.13;;
13805;SDS011;6974;53.606;9.872;2022-07-06T13:07:53;4.93;;;1.33;;
13805;SDS011;6974;53.606;9.872;2022-07-06T13:10:21;1.90;;;0.97;;
13805;SDS011;6974;53.606;9.872;2022-07-06T13:12:50;3.50;;;1.40;;
13805;SDS011;6974;53.606;9.872;2022-07-06T13:15:17;3.57;;;1.30;;
13805;SDS011;6974;53.606;9.872;2022-07-06T13:17:44;3.10;;;1.10;;
13805;SDS011;6974;53.606;9.872;2022-07-06T13:20:12;2.60;;;1.00;;
13805;SDS011;6974;53.606;9.872;2022-07-06T13:22:42;2.93;;;1.23;;
13805;SDS011;6974;53.606;9.872;2022-07-06T13:25:09;2.70;;;1.20;;
13805;SDS011;6974;53.606;9.872;2022-07-06T13:27:37;1.90;;;1.10;;
13805;SDS011;6974;53.606;9.872;2022-07-06T13:30:06;2.30;;;1.10;;
13805;SDS011;6974;53.606;9.872;2022-07-06T13:32:33;2.53;;;1.10;;
13805;SDS011;6974;53.606;9.872;2022-07-06T13:35:00;1.90;;;0.90;;
13805;SDS011;6974;53.606;9.872;2022-07-06T13:37:27;2.03;;;1.13;;
13805;SDS011;6974;53.606;9.872;2022-07-06T13:39:54;4.27;;;1.20;;
13805;SDS011;6974;53.606;9.872;2022-07-06T13:42:21;1.70;;;0.93;;
13805;SDS011;6974;53.606;9.872;2022-07-06T13:44:48;2.80;;;1.40;;
13805;SDS011;6974;53.606;9.872;2022-07-06T13:47:16;2.30;;;1.30;;
13805;SDS011;6974;53.606;9.872;2022-07-06T13:49:43;3.50;;;1.27;;
13805;SDS011;6974;53.606;9.872;2022-07-06T13:52:12;2.50;;;0.97;;
13805;SDS011;6974;53.606;9.872;2022-07-06T13:54:39;1.53;;;1.07;;
13805;SDS011;6974;53.606;9.872;2022-07-06T13:57:06;1.77;;;1.00;;
13805;SDS011;6974;53.606;9.872;2022-07-06T13:59:33;2.60;;;0.73;;
13805;SDS011;6974;53.606;9.872;2022-07-06T14:02:00;2.07;;;1.17;;
13805;SDS011;6974;53.606;9.872;2022-07-06T14:04:28;2.30;;;1.00;;
13805;SDS011;6974;53.606;9.872;2022-07-06T14:06:55;2.87;;;1.27;;
13805;SDS011;6974;53.606;9.872;2022-07-06T14:09:21;1.27;;;0.90;;
13805;SDS011;6974;53.606;9.872;2022-07-06T14:11:48;5.20;;;1.40;;
13805;SDS011;6974;53.606;9.872;2022-07-06T14:14:15;1.87;;;0.73;;
13805;SDS011;6974;53.606;9.872;2022-07-06T14:16:42;1.90;;;1.07;;
13805;SDS011;6974;53.606;9.872;2022-07-06T14:19:09;2.13;;;0.90;;
13805;SDS011;6974;53.606;9.872;2022-07-06T14:21:37;4.00;;;1.13;;
13805;SDS011;6974;53.606;9.872;2022-07-06T14:24:04;2.93;;;1.10;;
13805;SDS011;6974;53.606;9.872;2022-07-06T14:26:31;2.53;;;1.00;;
13805;SDS011;6974;53.606;9.872;2022-07-06T14:28:58;1.80;;;1.20;;
13805;SDS011;6974;53.606;9.872;2022-07-06T14:31:25;2.10;;;0.90;;
13805;SDS011;6974;53.606;9.872;2022-07-06T14:33:52;2.83;;;1.40;;
13805;SDS011;6974;53.606;9.872;2022-07-06T14:36:19;2.17;;;0.93;;
13805;SDS011;6974;53.606;9.872;2022-07-06T14:38:47;3.37;;;1.10;;
13805;SDS011;6974;53.606;9.872;2022-07-06T14:41:14;1.20;;;0.97;;
13805;SDS011;6974;53.606;9.872;2022-07-06T14:43:41;2.53;;;1.20;;
13805;SDS011;6974;53.606;9.872;2022-07-06T14:46:07;4.70;;;1.40;;
13805;SDS011;6974;53.606;9.872;2022-07-06T14:48:34;3.23;;;1.23;;
13805;SDS011;6974;53.606;9.872;2022-07-06T14:51:01;1.80;;;1.00;;
13805;SDS011;6974;53.606;9.872;2022-07-06T14:53:28;1.53;;;0.80;;
13805;SDS011;6974;53.606;9.872;2022-07-06T14:55:57;2.67;;;1.20;;
13805;SDS011;6974;53.606;9.872;2022-07-06T14:58:24;3.30;;;1.10;;
13805;SDS011;6974;53.606;9.872;2022-07-06T15:00:51;2.97;;;1.00;;
13805;SDS011;6974;53.606;9.872;2022-07-06T15:03:18;3.07;;;0.87;;
13805;SDS011;6974;53.606;9.872;2022-07-06T15:05:44;3.93;;;1.17;;
13805;SDS011;6974;53.606;9.872;2022-07-06T15:08:13;2.60;;;0.90;;
13805;SDS011;6974;53.606;9.872;2022-07-06T15:10:40;3.70;;;1.10;;
13805;SDS011;6974;53.606;9.872;2022-07-06T15:13:09;1.30;;;1.20;;